地図

経路データ

SID SEASON NUMBER BASIN SUBBASIN NAME ISO_TIME NATURE LAT LON WMO_WIND WMO_PRES WMO_AGENCY TRACK_TYPE DIST2LAND LANDFALL IFLAG USA_AGENCY USA_ATCF_ID USA_LAT USA_LON USA_RECORD USA_STATUS USA_WIND USA_PRES USA_SSHS USA_R34_NE USA_R34_SE USA_R34_SW USA_R34_NW USA_R50_NE USA_R50_SE USA_R50_SW USA_R50_NW USA_R64_NE USA_R64_SE USA_R64_SW USA_R64_NW USA_POCI USA_ROCI USA_RMW USA_EYE TOKYO_LAT TOKYO_LON TOKYO_GRADE TOKYO_WIND TOKYO_PRES TOKYO_R50_DIR TOKYO_R50_LONG TOKYO_R50_SHORT TOKYO_R30_DIR TOKYO_R30_LONG TOKYO_R30_SHORT TOKYO_LAND CMA_LAT CMA_LON CMA_CAT CMA_WIND CMA_PRES HKO_LAT HKO_LON HKO_CAT HKO_WIND HKO_PRES NEWDELHI_LAT NEWDELHI_LON NEWDELHI_GRADE NEWDELHI_WIND NEWDELHI_PRES NEWDELHI_CI NEWDELHI_DP NEWDELHI_POCI REUNION_LAT REUNION_LON REUNION_TYPE REUNION_WIND REUNION_PRES REUNION_TNUM REUNION_CI REUNION_RMW REUNION_R34_NE REUNION_R34_SE REUNION_R34_SW REUNION_R34_NW REUNION_R50_NE REUNION_R50_SE REUNION_R50_SW REUNION_R50_NW REUNION_R64_NE REUNION_R64_SE REUNION_R64_SW REUNION_R64_NW BOM_LAT BOM_LON BOM_TYPE BOM_WIND BOM_PRES BOM_TNUM BOM_CI BOM_RMW BOM_R34_NE BOM_R34_SE BOM_R34_SW BOM_R34_NW BOM_R50_NE BOM_R50_SE BOM_R50_SW BOM_R50_NW BOM_R64_NE BOM_R64_SE BOM_R64_SW BOM_R64_NW BOM_ROCI BOM_POCI BOM_EYE BOM_POS_METHOD BOM_PRES_METHOD NADI_LAT NADI_LON NADI_CAT NADI_WIND NADI_PRES WELLINGTON_LAT WELLINGTON_LON WELLINGTON_WIND WELLINGTON_PRES DS824_LAT DS824_LON DS824_STAGE DS824_WIND DS824_PRES TD9636_LAT TD9636_LON TD9636_STAGE TD9636_WIND TD9636_PRES TD9635_LAT TD9635_LON TD9635_WIND TD9635_PRES TD9635_ROCI NEUMANN_LAT NEUMANN_LON NEUMANN_CLASS NEUMANN_WIND NEUMANN_PRES MLC_LAT MLC_LON MLC_CLASS MLC_WIND MLC_PRES USA_GUST BOM_GUST BOM_GUST_PER REUNION_GUST REUNION_GUST_PER USA_SEAHGT USA_SEARAD_NE USA_SEARAD_SE USA_SEARAD_SW USA_SEARAD_NW STORM_SPEED STORM_DIR
1966312N08084 1966 105 NI BB NOT_NAMED 1966-11-07 18:00:00 TS 7.90000 84.2000 main 266 255 O________O____ jtwc_io IO161966 7.90000 84.2000 -1 7.90000 84.2000 TC 2 310
1966312N08084 1966 105 NI BB NOT_NAMED 1966-11-07 21:00:00 TS 7.96250 84.1175 main 257 246 P________P____ IO161966 7.96250 84.1175 -1 7.96250 84.1175 TC 2 297
1966312N08084 1966 105 NI BB NOT_NAMED 1966-11-08 00:00:00 TS 8.00000 84.0000 main 246 225 O________O____ jtwc_io IO161966 8.00000 84.0000 -1 8.00000 84.0000 TC 25 3 277
1966312N08084 1966 105 NI BB NOT_NAMED 1966-11-08 03:00:00 TS 8.00000 83.8200 main 225 203 P________PO___ IO161966 8.00000 83.8225 -1 8.00000 83.8225 TC 25 8.00000 83.8000 1 4 271
1966312N08084 1966 105 NI BB NOT_NAMED 1966-11-08 06:00:00 TS 8.00943 83.5857 main 203 171 O________OP___ jtwc_io IO161966 8.00000 83.6000 -1 8.00000 83.6000 TC 25 8.04717 83.5283 1 5 276
1966312N08084 1966 105 NI BB NOT_NAMED 1966-11-08 09:00:00 TS 8.05147 83.3323 main 174 153 P________PP___ IO161966 8.03500 83.3575 -1 8.03500 83.3575 TC 25 8.09539 83.2653 1 5 282
1966312N08084 1966 105 NI BB NOT_NAMED 1966-11-08 12:00:00 TS 8.11530 83.0732 main 153 129 O________OP___ jtwc_io IO161966 8.10000 83.1000 -1 8.10000 83.1000 TC 25 8.14591 83.0196 1 5 286
1966312N08084 1966 105 NI BB NOT_NAMED 1966-11-08 15:00:00 TS 8.19499 82.8333 main 129 115 P________PO___ IO161966 8.19249 82.8500 -1 8.19249 82.8500 TC 25 8.20000 82.8000 1 5 290
1966312N08084 1966 105 NI BB NOT_NAMED 1966-11-08 18:00:00 TS 8.28695 82.6022 main 115 94 O________OP___ jtwc_io IO161966 8.30000 82.6000 -1 8.30000 82.6000 TC 25 8.26086 82.6065 1 5 292
1966312N08084 1966 105 NI BB NOT_NAMED 1966-11-08 21:00:00 TS 8.37475 82.3781 main 98 77 P________PP___ IO161966 8.39245 82.3650 -1 8.39245 82.3650 TC 30 8.33935 82.4044 1 5 292
1966312N08084 1966 105 NI BB NOT_NAMED 1966-11-09 00:00:00 TS 8.48273 82.1167 main 77 49 O________OP___ jtwc_io IO161966 8.50000 82.1000 -1 8.50000 82.1000 TC 35 8.44820 82.1501 1 6 293
1966312N08084 1966 105 NI BB NOT_NAMED 1966-11-09 03:00:00 TS 8.61321 81.8115 main 49 24 P________PO___ IO161966 8.61981 81.8173 -1 8.61981 81.8173 TC 30 8.60000 81.8000 2 8 294
1966312N08084 1966 105 NI BB NOT_NAMED 1966-11-09 06:00:00 TS 8.80925 81.3589 main 24 0 O________OP___ jtwc_io IO161966 8.80000 81.4000 -1 8.80000 81.4000 TC 25 8.82776 81.2768 2 12 294
1966312N08084 1966 105 NI BB NOT_NAMED 1966-11-09 09:00:00 TS 9.09794 80.7071 main 0 0 P________PP___ IO161966 9.10024 80.7303 -1 9.10024 80.7303 TC 25 9.09334 80.6608 2 15 293
1966312N08084 1966 105 NI BB NOT_NAMED 1966-11-09 12:00:00 TS 9.38738 80.0048 main 10 10 O________OP___ jtwc_io IO161966 9.40000 80.0000 -1 9.40000 80.0000 TC 25 9.36215 80.0143 2 14 291
1966312N08084 1966 105 NI BB NOT_NAMED 1966-11-09 15:00:00 TS 9.58657 79.4082 main 39 0 P________PO___ IO161966 9.57986 79.4124 -1 9.57986 79.4124 TC 25 9.60000 79.4000 1 11 287
1966312N08084 1966 105 NI BB NOT_NAMED 1966-11-09 18:00:00 TS 9.71477 78.8967 main 0 0 O________OP___ jtwc_io IO161966 9.70000 78.9000 -1 9.70000 78.9000 TC 25 9.74432 78.8901 1 10 283
1966312N08084 1966 105 NI BB NOT_NAMED 1966-11-09 21:00:00 TS 9.81398 78.4214 main 0 0 P________PP___ IO161966 9.79243 78.4199 -1 9.79243 78.4199 TC 25 9.85707 78.4244 1 9 283
1966312N08084 1966 105 NI AS NOT_NAMED 1966-11-10 00:00:00 TS 9.92210 77.9988 main 0 0 O________OP___ jtwc_io IO161966 9.90000 78.0000 -1 9.90000 78.0000 TC 25 9.96630 77.9964 1 8 289
1966312N08084 1966 105 NI AS NOT_NAMED 1966-11-10 03:00:00 TS 10.0849 77.6233 main 0 0 P________PO___ IO161966 10.0774 77.6350 -1 10.0774 77.6350 TC 25 10.1000 77.6000 1 8 298
1966312N08084 1966 105 NI AS NOT_NAMED 1966-11-10 06:00:00 TS 10.2987 77.2737 main 0 0 O________OP___ jtwc_io IO161966 10.3000 77.3000 -1 10.3000 77.3000 TC 25 10.2960 77.2212 1 8 303
1966312N08084 1966 105 NI AS NOT_NAMED 1966-11-10 09:00:00 TS 10.5399 76.9233 main 0 0 P________PP___ IO161966 10.5500 76.9500 -1 10.5500 76.9500 TC 25 10.5196 76.8699 1 8 305
1966312N08084 1966 105 NI AS NOT_NAMED 1966-11-10 12:00:00 TS 10.7862 76.5779 main 0 0 O________OP___ jtwc_io IO161966 10.8000 76.6000 -1 10.8000 76.6000 TC 25 10.7585 76.5337 1 8 304
1966312N08084 1966 105 NI AS NOT_NAMED 1966-11-10 15:00:00 TS 11.0000 76.2333 main 0 0 P________PO___ IO161966 11.0000 76.2499 -1 11.0000 76.2499 TC 25 11.0000 76.2000 1 8 301
1966312N08084 1966 105 NI AS NOT_NAMED 1966-11-10 18:00:00 TS 11.2043 75.8779 main 0 0 O________OP___ jtwc_io IO161966 11.2000 75.9000 -1 11.2000 75.9000 TC 25 11.2128 75.8336 1 8 302
1966312N08084 1966 105 NI AS NOT_NAMED 1966-11-10 21:00:00 TS 11.4375 75.5232 main 15 10 P________PP___ IO161966 11.4425 75.5500 -1 11.4425 75.5500 TC 25 11.4275 75.4698 1 8 305
1966312N08084 1966 105 NI AS NOT_NAMED 1966-11-11 00:00:00 TS 11.6845 75.1737 main 31 24 O________OP___ jtwc_io IO161966 11.7000 75.2000 -1 11.7000 75.2000 TC 25 11.6535 75.1211 1 8 306
1966312N08084 1966 105 NI AS NOT_NAMED 1966-11-11 03:00:00 TS 11.9283 74.8233 main 44 39 P________PO___ IO161966 11.9425 74.8350 -1 11.9425 74.8350 TC 25 11.9000 74.8000 1 8 308
1966312N08084 1966 105 NI AS NOT_NAMED 1966-11-11 06:00:00 TS 12.1941 74.4990 main 58 58 O________OP___ jtwc_io IO161966 12.2000 74.5000 -1 12.2000 74.5000 TC 25 12.1824 74.4969 1 8 314
1966312N08084 1966 105 NI AS NOT_NAMED 1966-11-11 09:00:00 TS 12.4899 74.2217 main 73 68 P________PP___ IO161966 12.4925 74.2200 -1 12.4925 74.2200 TC 30 12.4849 74.2251 1 8 321
1966312N08084 1966 105 NI AS NOT_NAMED 1966-11-11 12:00:00 TS 12.7983 73.9969 main 86 86 O________OP___ jtwc_io IO161966 12.8000 74.0000 -1 12.8000 74.0000 TC 35 12.7950 73.9907 1 7 327
1966312N08084 1966 105 NI AS NOT_NAMED 1966-11-11 15:00:00 TS 13.1000 73.8183 main 100 98 P________PO___ IO161966 13.1000 73.8274 -1 13.1000 73.8274 TC 35 13.1000 73.8000 2 7 333
1966312N08084 1966 105 NI AS NOT_NAMED 1966-11-11 18:00:00 TS 13.3994 73.6828 main 108 107 O________OP___ jtwc_io IO161966 13.4000 73.7000 -1 13.4000 73.7000 TC 35 13.3983 73.6485 2 7 339
1966312N08084 1966 105 NI AS NOT_NAMED 1966-11-11 21:00:00 TS 13.7058 73.5749 main 107 102 P________PP___ IO161966 13.7150 73.5925 -1 13.7150 73.5925 TC 50 13.6873 73.5397 2 6 342
1966312N08084 1966 105 NI AS NOT_NAMED 1966-11-12 00:00:00 TS 13.9859 73.4870 main 102 99 O________OP___ jtwc_io IO161966 14.0000 73.5000 -1 14.0000 73.5000 TC 65 13.9577 73.4611 2 5 341
1966312N08084 1966 105 NI AS NOT_NAMED 1966-11-12 03:00:00 TS 14.2150 73.3950 main 100 93 P________PO___ IO161966 14.2225 73.3925 -1 14.2225 73.3925 TC 65 14.2000 73.4000 4 5 338
1966312N08084 1966 105 NI AS NOT_NAMED 1966-11-12 06:00:00 TS 14.4012 73.3091 main 97 92 O________OP___ jtwc_io IO161966 14.4000 73.3000 -1 14.4000 73.3000 TC 65 14.4037 73.3274 4 4 338
1966312N08084 1966 105 NI AS NOT_NAMED 1966-11-12 09:00:00 TS 14.5600 73.2466 main 93 87 P________PP___ IO161966 14.5500 73.2350 -1 14.5500 73.2350 TC 65 14.5800 73.2699 4 3 343
1966312N08084 1966 105 NI AS NOT_NAMED 1966-11-12 12:00:00 TS 14.7137 73.2092 main 87 78 O________OP___ jtwc_io IO161966 14.7000 73.2000 -1 14.7000 73.2000 TC 65 14.7412 73.2275 4 3 350
1966312N08084 1966 105 NI AS NOT_NAMED 1966-11-12 15:00:00 TS 14.9000 73.1950 main 78 75 P________PO___ IO161966 14.9000 73.1925 -1 14.9000 73.1925 TC 65 14.9000 73.2000 4 4 0
1966312N08084 1966 105 NI AS NOT_NAMED 1966-11-12 18:00:00 TS 15.0727 73.1885 main 75 69 O________OP___ jtwc_io IO161966 15.1000 73.2000 -1 15.1000 73.2000 TC 65 15.0181 73.1655 4 3 0
1966312N08084 1966 105 NI AS NOT_NAMED 1966-11-12 21:00:00 TS 15.2100 73.1777 main 69 58 P________PP___ IO161966 15.2425 73.1925 -1 15.2425 73.1925 TC 65 15.1450 73.1479 4 3 0
1966312N08084 1966 105 NI AS NOT_NAMED 1966-11-13 00:00:00 TS 15.3748 73.1854 main 58 53 O________OP___ jtwc_io IO161966 15.4000 73.2000 -1 15.4000 73.2000 TC 65 15.3244 73.1563 4 4 6
1966312N08084 1966 105 NI AS NOT_NAMED 1966-11-13 03:00:00 TS 15.5833 73.2234 main 53 30 P________PO___ IO161966 15.5750 73.2351 -1 15.5750 73.2351 TC 50 15.6000 73.2000 4 6 10
1966312N08084 1966 105 NI AS NOT_NAMED 1966-11-13 06:00:00 TS 15.9455 73.2843 main 30 0 O________OP___ jtwc_io IO161966 15.9000 73.3000 -1 15.9000 73.3000 TC 35 16.0364 73.2529 4 10 8
1966312N08084 1966 105 NI AS NOT_NAMED 1966-11-13 09:00:00 TS 16.5357 73.3619 main 0 0 P________PP___ IO161966 16.5200 73.3701 -1 16.5200 73.3701 TC 30 16.5672 73.3456 4 13 9
1966312N08084 1966 105 NI AS NOT_NAMED 1966-11-13 12:00:00 TS 17.1798 73.4969 main 0 0 O________OP___ jtwc_io IO161966 17.2000 73.5000 -1 17.2000 73.5000 TC 25 17.1395 73.4906 4 12 16
1966312N08084 1966 105 NI AS NOT_NAMED 1966-11-13 15:00:00 TS 17.6866 73.7084 main 0 0 P________PO___ IO161966 17.6800 73.7126 -1 17.6800 73.7126 TC 25 17.7000 73.7000 1 11 26
1966312N08084 1966 105 NI AS NOT_NAMED 1966-11-13 18:00:00 TS 18.1238 73.9844 main 0 0 O________OP___ jtwc_io IO161966 18.1000 74.0000 -1 18.1000 74.0000 TC 25 18.1713 73.9533 1 11 33
1966312N08084 1966 105 NI AS NOT_NAMED 1966-11-13 21:00:00 TS 18.5739 74.3046 main 0 0 P________PP___ IO161966 18.5499 74.3202 -1 18.5499 74.3202 TC 25 18.6220 74.2735 1 11 37
1966312N08084 1966 105 NI AS NOT_NAMED 1966-11-14 00:00:00 TS 19.0206 74.6856 main 0 0 O________OP___ jtwc_io IO161966 19.0000 74.7000 -1 19.0000 74.7000 TC 25 19.0617 74.6569 1 12 41
1966312N08084 1966 105 NI AS NOT_NAMED 1966-11-14 03:00:00 TS 19.4666 75.1135 main 0 0 P________PO___ IO161966 19.4499 75.1203 -1 19.4499 75.1203 TC 25 19.5000 75.1000 1 12 44
1966312N08084 1966 105 NI AS NOT_NAMED 1966-11-14 06:00:00 TS 19.9178 75.5992 main 0 0 O________OP___ jtwc_io IO161966 19.9000 75.6000 -1 19.9000 75.6000 TC 25 19.9444 75.5979 1 13 47
1966312N08084 1966 105 NI AS NOT_NAMED 1966-11-14 09:00:00 TS 20.3692 76.1365 main 0 0 P________PP___ IO161966 20.3504 76.1343 -1 20.3504 76.1343 TC 25 20.3943 76.1393 1 14 49
1966312N08084 1966 105 NI AS NOT_NAMED 1966-11-14 12:00:00 TS 20.8235 76.7056 main 0 0 O________OP___ jtwc_io IO161966 20.8000 76.7000 -1 20.8000 76.7000 TC 25 20.8471 76.7112 1 14 49
1966312N08084 1966 105 NI AS NOT_NAMED 1966-11-14 15:00:00 NR 21.3000 77.3000 main 0 __________O___ IO161966 -1 TC 21.3000 77.3000 1 15 49

IBTrACS Databaseについて

本データベースは、米国NOAAが公開する1842年以降の世界の熱帯低気圧のベストトラックデータアーカイブInternational Best Track Archive for Climate Stewardship (IBTrACS)を、ウェブで閲覧しやすい形式に変換したものです。

最終更新日:2021-10-08